createdAt,value
2024-03-02T00:01:09.072Z,75.85
2024-03-02T00:03:48.184Z,73.47
2024-03-02T00:06:21.308Z,71.72
2024-03-02T00:08:50.035Z,75.32
2024-03-02T00:11:19.580Z,69.50
2024-03-02T00:13:48.021Z,70.45
2024-03-02T00:16:19.701Z,68.93
2024-03-02T00:18:49.224Z,74.28
2024-03-02T00:21:21.622Z,68.97
2024-03-02T00:23:53.466Z,71.45
2024-03-02T00:26:22.290Z,72.47
2024-03-02T00:28:51.753Z,73.00
2024-03-02T00:31:21.440Z,72.38
2024-03-02T00:33:50.434Z,72.30
2024-03-02T00:36:28.854Z,74.60
2024-03-02T00:38:58.285Z,73.78
2024-03-02T00:41:33.051Z,73.18
2024-03-02T00:44:06.233Z,74.03
2024-03-02T00:46:39.873Z,70.30
2024-03-02T00:49:22.342Z,72.15
2024-03-02T00:51:53.455Z,78.35
2024-03-02T00:54:27.952Z,73.35
2024-03-02T00:56:57.772Z,70.82
2024-03-02T00:59:28.390Z,67.72
2024-03-02T01:01:57.077Z,69.93
2024-03-02T01:04:25.509Z,75.70
2024-03-02T01:06:54.078Z,72.00
2024-03-02T01:09:22.469Z,66.40
2024-03-02T01:11:51.334Z,71.88
2024-03-02T01:14:19.712Z,68.07
2024-03-02T01:16:48.363Z,72.85
2024-03-02T01:19:17.016Z,71.57
2024-03-02T01:21:45.788Z,70.45
2024-03-02T01:24:14.668Z,71.57
2024-03-02T01:26:43.653Z,69.00
2024-03-02T01:29:11.870Z,72.75
2024-03-02T01:31:43.542Z,71.00
2024-03-02T01:34:12.028Z,64.57
2024-03-02T01:36:41.279Z,69.72
2024-03-02T01:39:10.751Z,66.30
2024-03-02T01:41:39.397Z,69.38
2024-03-02T01:44:08.172Z,68.90
2024-03-02T01:46:37.219Z,67.65
2024-03-02T01:49:05.825Z,67.95
2024-03-02T01:51:34.757Z,64.47
2024-03-02T01:54:03.200Z,70.10
2024-03-02T01:56:31.869Z,65.05
2024-03-02T01:59:00.371Z,66.93
2024-03-02T02:01:29.137Z,65.03
2024-03-02T02:03:58.240Z,67.30
2024-03-02T02:06:27.451Z,62.97
2024-03-02T02:08:56.210Z,67.35
2024-03-02T02:11:26.155Z,61.30
2024-03-02T02:13:56.895Z,70.55
2024-03-02T02:16:25.653Z,66.65
2024-03-02T02:18:54.038Z,66.78
2024-03-02T02:21:25.798Z,65.85
2024-03-02T02:23:54.362Z,62.50
2024-03-02T02:26:22.982Z,68.10
2024-03-02T02:28:51.753Z,62.05
2024-03-02T02:31:20.510Z,60.75
2024-03-02T02:33:49.206Z,59.42
2024-03-02T02:36:18.060Z,61.17
2024-03-02T02:38:49.298Z,58.47
2024-03-02T02:41:18.266Z,61.50
2024-03-02T02:43:46.510Z,63.25
2024-03-02T02:46:15.140Z,59.58
2024-03-02T02:48:43.459Z,61.08
2024-03-02T02:51:12.336Z,67.53
2024-03-02T02:53:43.493Z,63.88
2024-03-02T02:56:12.160Z,65.18
2024-03-02T02:58:42.435Z,58.83
2024-03-02T03:01:11.268Z,59.65
2024-03-02T03:03:39.580Z,55.47
2024-03-02T03:06:08.360Z,56.90
2024-03-02T03:08:36.556Z,55.58
2024-03-02T03:11:06.135Z,55.60
2024-03-02T03:13:35.729Z,52.17
2024-03-02T03:16:05.105Z,53.88
2024-03-02T03:18:33.477Z,50.75
2024-03-02T03:21:02.073Z,53.13
2024-03-02T03:23:30.437Z,54.22
2024-03-02T03:25:59.037Z,47.53
2024-03-02T03:28:27.368Z,50.38
2024-03-02T03:30:55.971Z,53.15
2024-03-02T03:33:24.985Z,52.38
2024-03-02T03:35:54.723Z,50.25
2024-03-02T03:38:23.187Z,51.50
2024-03-02T03:40:52.069Z,44.72
2024-03-02T03:43:20.415Z,50.78
2024-03-02T03:45:49.020Z,51.22
2024-03-02T03:48:17.542Z,53.38
2024-03-02T03:50:46.159Z,53.80
2024-03-02T03:53:15.870Z,43.50
2024-03-02T03:55:44.648Z,46.88
2024-03-02T03:58:12.979Z,45.28
2024-03-02T04:00:41.623Z,46.58
2024-03-02T04:03:10.035Z,49.05
2024-03-02T04:05:39.644Z,50.92
2024-03-02T04:08:08.048Z,52.30
2024-03-02T04:10:36.774Z,47.25
2024-03-02T04:13:05.358Z,44.25
2024-03-02T04:15:34.068Z,45.97
2024-03-02T04:18:02.912Z,45.65
2024-03-02T04:20:31.517Z,50.47
2024-03-02T04:22:59.855Z,45.13
2024-03-02T04:25:28.509Z,40.10
2024-03-02T04:27:57.081Z,40.40
2024-03-02T04:30:26.541Z,42.10
2024-03-02T04:32:55.419Z,39.28
2024-03-02T04:35:24.277Z,43.75
2024-03-02T04:37:56.055Z,40.95
2024-03-02T04:40:24.626Z,44.92
2024-03-02T04:42:53.091Z,41.05
2024-03-02T04:45:21.844Z,45.78
2024-03-02T04:47:50.424Z,48.50
2024-03-02T04:50:19.497Z,40.03
2024-03-02T04:52:47.756Z,43.17
2024-03-02T04:55:34.769Z,40.75
2024-03-02T04:58:03.191Z,42.90
2024-03-02T05:00:32.369Z,43.20
2024-03-02T05:03:00.740Z,42.45
2024-03-02T05:05:30.018Z,44.65
2024-03-02T05:07:58.288Z,43.55
2024-03-02T05:10:27.341Z,44.45
2024-03-02T05:13:00.355Z,43.78
2024-03-02T05:15:29.613Z,42.70
2024-03-02T05:17:59.129Z,42.65
2024-03-02T05:20:28.001Z,42.78
2024-03-02T05:22:56.507Z,49.58
2024-03-02T05:25:25.312Z,43.00
2024-03-02T05:27:53.620Z,46.20
2024-03-02T05:30:22.403Z,43.22
2024-03-02T05:32:50.740Z,43.80
2024-03-02T05:35:19.633Z,47.90
2024-03-02T05:37:48.040Z,45.10
2024-03-02T05:40:16.834Z,44.00
2024-03-02T05:42:45.179Z,41.45
2024-03-02T05:45:13.930Z,44.40
2024-03-02T05:47:42.237Z,42.50
2024-03-02T05:50:10.972Z,46.53
2024-03-02T05:52:40.065Z,43.92
2024-03-02T05:55:08.790Z,42.45
2024-03-02T05:57:45.959Z,46.28
2024-03-02T06:00:18.356Z,41.95
2024-03-02T06:02:46.971Z,47.83
2024-03-02T06:05:16.744Z,42.72
2024-03-02T06:07:45.153Z,46.53
2024-03-02T06:10:14.622Z,45.38
2024-03-02T06:12:43.675Z,42.20
2024-03-02T06:15:12.464Z,45.40
2024-03-02T06:17:40.981Z,44.00
2024-03-02T06:20:10.595Z,42.88
2024-03-02T06:22:39.293Z,41.53
2024-03-02T06:25:08.782Z,48.15
2024-03-02T06:27:37.472Z,41.22
2024-03-02T06:30:11.322Z,42.45
2024-03-02T06:32:39.785Z,39.92
2024-03-02T06:35:11.318Z,39.78
2024-03-02T06:37:42.781Z,44.58
2024-03-02T06:40:11.823Z,45.75
2024-03-02T06:42:40.712Z,45.85
2024-03-02T06:45:09.447Z,45.22
2024-03-02T06:47:37.827Z,46.90
2024-03-02T06:50:08.299Z,46.92
2024-03-02T06:52:37.516Z,42.75
2024-03-02T06:55:06.921Z,45.75
2024-03-02T06:57:35.507Z,42.60
2024-03-02T07:00:06.444Z,43.15
2024-03-02T07:02:35.254Z,44.60
2024-03-02T07:05:05.341Z,44.78
2024-03-02T07:07:33.749Z,42.72
2024-03-02T07:10:02.703Z,41.83
2024-03-02T07:12:31.114Z,45.53
2024-03-02T07:15:05.452Z,53.70
2024-03-02T07:17:35.359Z,52.30
2024-03-02T07:20:05.114Z,52.35
2024-03-02T07:22:36.080Z,46.47
2024-03-02T07:25:05.461Z,50.08
2024-03-02T07:27:34.955Z,49.83
2024-03-02T07:30:04.943Z,47.88
2024-03-02T07:32:33.640Z,47.55
2024-03-02T07:35:02.755Z,47.53
2024-03-02T07:37:31.404Z,44.63
2024-03-02T07:40:00.125Z,44.17
2024-03-02T07:42:28.622Z,46.25
2024-03-02T07:44:57.289Z,46.38
2024-03-02T07:47:25.811Z,47.85
2024-03-02T07:49:54.717Z,42.30
2024-03-02T07:52:22.973Z,43.08
2024-03-02T07:54:52.270Z,41.50
2024-03-02T07:57:20.640Z,44.00
2024-03-02T07:59:50.824Z,42.85
2024-03-02T08:02:19.314Z,39.50
2024-03-02T08:04:47.905Z,46.47
2024-03-02T08:07:16.297Z,45.70
2024-03-02T08:09:44.972Z,41.80
2024-03-02T08:12:13.393Z,39.78
2024-03-02T08:14:47.600Z,40.63
2024-03-02T08:17:23.666Z,39.97
2024-03-02T08:19:52.837Z,37.15
2024-03-02T08:22:26.727Z,39.10
2024-03-02T08:24:59.296Z,39.65
2024-03-02T08:27:27.987Z,37.95
2024-03-02T08:29:58.131Z,39.33
2024-03-02T08:32:26.638Z,38.75
2024-03-02T08:34:56.104Z,38.63
2024-03-02T08:37:24.950Z,42.78
2024-03-02T08:39:53.934Z,38.17
2024-03-02T08:42:23.524Z,38.90
2024-03-02T08:44:52.425Z,37.55
2024-03-02T08:47:22.225Z,38.13
2024-03-02T08:49:50.909Z,39.58
2024-03-02T08:52:19.393Z,40.75
2024-03-02T08:54:48.165Z,37.65
2024-03-02T08:57:16.539Z,38.38
2024-03-02T08:59:45.689Z,36.50
2024-03-02T09:02:14.077Z,37.78
2024-03-02T09:04:42.720Z,39.60
2024-03-02T09:07:14.155Z,39.97
2024-03-02T09:09:42.910Z,36.97
2024-03-02T09:12:12.239Z,37.60
2024-03-02T09:14:42.434Z,39.17
2024-03-02T09:17:12.939Z,37.22
2024-03-02T09:19:42.422Z,36.03
2024-03-02T09:22:11.177Z,37.28
2024-03-02T09:24:39.955Z,40.78
2024-03-02T09:27:09.294Z,36.30
2024-03-02T09:29:37.932Z,34.63
2024-03-02T09:32:07.314Z,34.90
2024-03-02T09:34:36.116Z,34.10
2024-03-02T09:37:05.664Z,37.17
2024-03-02T09:39:34.380Z,36.67
2024-03-02T09:42:03.227Z,35.80
2024-03-02T09:44:32.220Z,39.08
2024-03-02T09:47:00.802Z,36.55
2024-03-02T09:49:29.612Z,39.15
2024-03-02T09:51:58.463Z,33.67
2024-03-02T09:54:27.182Z,37.58
2024-03-02T09:56:55.901Z,33.97
2024-03-02T09:59:24.817Z,35.88
2024-03-02T10:02:01.441Z,33.35
2024-03-02T10:04:37.095Z,32.90
2024-03-02T10:07:13.627Z,35.38
2024-03-02T10:09:43.660Z,31.77
2024-03-02T10:12:14.057Z,32.55
2024-03-02T10:14:43.392Z,32.50
2024-03-02T10:17:16.863Z,33.00
2024-03-02T10:19:45.643Z,31.52
2024-03-02T10:22:14.983Z,33.25
2024-03-02T10:24:46.922Z,32.83
2024-03-02T10:27:28.391Z,33.20
2024-03-02T10:29:57.308Z,32.55
2024-03-02T10:32:25.855Z,32.35
2024-03-02T10:34:54.685Z,33.25
2024-03-02T10:37:23.243Z,32.92
2024-03-02T10:39:53.953Z,35.78
2024-03-02T10:42:24.930Z,32.60
2024-03-02T10:44:54.148Z,33.65
2024-03-02T10:47:24.532Z,31.38
2024-03-02T10:49:55.135Z,30.65
2024-03-02T10:52:24.473Z,32.38
2024-03-02T10:54:53.229Z,35.53
2024-03-02T10:57:24.713Z,39.92
2024-03-02T10:59:57.851Z,35.97
2024-03-02T11:02:52.814Z,39.63
2024-03-02T11:05:30.859Z,38.00
2024-03-02T11:08:07.827Z,36.95
2024-03-02T11:10:43.050Z,36.45
2024-03-02T11:20:33.172Z,40.65
2024-03-02T11:23:07.009Z,36.80
2024-03-02T11:25:36.134Z,39.33
2024-03-02T11:29:02.233Z,37.90
2024-03-02T11:32:00.736Z,41.67
2024-03-02T11:34:36.529Z,39.08
2024-03-02T11:37:05.841Z,38.65
2024-03-02T11:39:35.651Z,37.75
2024-03-02T11:42:04.376Z,38.28
2024-03-02T11:44:34.427Z,39.90
2024-03-02T11:47:06.559Z,38.20
2024-03-02T11:49:43.873Z,38.47
2024-03-02T11:52:13.955Z,42.50
2024-03-02T11:54:53.814Z,42.28
2024-03-02T11:57:27.500Z,38.20
2024-03-02T11:59:59.320Z,39.63
2024-03-02T12:07:04.740Z,38.35
2024-03-02T12:14:16.790Z,37.92
2024-03-02T12:16:45.984Z,38.13
2024-03-02T12:19:17.063Z,39.17
2024-03-02T12:21:45.655Z,38.93
2024-03-02T12:24:14.481Z,38.60
2024-03-02T12:26:43.064Z,38.33
2024-03-02T12:29:12.278Z,38.33
2024-03-02T12:31:49.113Z,39.90
2024-03-02T12:34:19.250Z,39.33
2024-03-02T12:36:50.777Z,41.75
2024-03-02T12:41:48.370Z,38.90
2024-03-02T12:44:16.968Z,36.92
2024-03-02T12:46:45.828Z,40.40
2024-03-02T12:49:19.569Z,37.75
2024-03-02T12:51:53.076Z,39.33
2024-03-02T12:54:24.124Z,43.05
2024-03-02T12:56:55.094Z,40.38
2024-03-02T12:59:28.174Z,41.85
2024-03-02T13:02:00.501Z,42.67
2024-03-02T13:04:31.096Z,45.97
2024-03-02T13:06:59.806Z,42.05
2024-03-02T13:09:28.987Z,43.38
2024-03-02T13:11:58.712Z,41.03
2024-03-02T13:14:27.622Z,39.97
2024-03-02T13:16:55.951Z,43.70
2024-03-02T13:19:24.711Z,43.47
2024-03-02T13:21:53.720Z,43.17
2024-03-02T13:24:22.432Z,40.22
2024-03-02T13:27:16.585Z,43.55
2024-03-02T13:29:45.357Z,40.88
2024-03-02T13:32:13.618Z,41.17
2024-03-02T13:34:42.810Z,45.88
2024-03-02T13:37:11.302Z,40.72
2024-03-02T13:39:43.627Z,48.85
2024-03-02T13:42:15.265Z,45.13
2024-03-02T13:44:49.602Z,42.47
2024-03-02T13:47:18.561Z,43.13
2024-03-02T13:49:48.342Z,44.95
2024-03-02T13:52:18.512Z,43.13
2024-03-02T13:54:49.225Z,46.50
2024-03-02T13:57:23.064Z,47.80
2024-03-02T13:59:53.890Z,50.28
2024-03-02T14:02:22.153Z,42.70
2024-03-02T14:04:51.829Z,47.40
2024-03-02T14:07:20.783Z,49.63
2024-03-02T14:10:40.457Z,43.38
2024-03-02T14:13:08.681Z,47.88
2024-03-02T14:15:40.925Z,49.35
2024-03-02T14:18:12.579Z,50.67
2024-03-02T14:20:46.718Z,51.80
2024-03-02T14:23:15.448Z,49.83
2024-03-02T14:25:44.232Z,50.67
2024-03-02T14:28:36.367Z,51.53
2024-03-02T14:31:02.622Z,50.20
2024-03-02T14:33:31.912Z,47.45
2024-03-02T14:36:00.770Z,47.78
2024-03-02T14:38:30.267Z,51.03
2024-03-02T14:41:02.317Z,48.53
2024-03-02T14:43:34.252Z,47.95
2024-03-02T14:46:03.453Z,53.25
2024-03-02T14:48:32.498Z,49.17
2024-03-02T14:51:23.817Z,52.25
2024-03-02T14:53:50.105Z,52.05
2024-03-02T14:56:18.934Z,45.50
2024-03-02T14:58:47.343Z,46.58
2024-03-02T15:01:17.172Z,49.28
2024-03-02T15:03:45.769Z,47.38
2024-03-02T15:06:14.961Z,51.40
2024-03-02T15:08:43.430Z,53.22
2024-03-02T15:11:12.449Z,50.38
2024-03-02T15:13:43.053Z,56.55
2024-03-02T15:16:12.073Z,51.97
2024-03-02T15:19:06.131Z,48.83
2024-03-02T15:21:35.052Z,52.92
2024-03-02T15:24:07.648Z,52.88
2024-03-02T15:26:45.603Z,59.42
2024-03-02T15:29:14.039Z,59.33
2024-03-02T15:32:08.458Z,56.88
2024-03-02T15:35:27.566Z,64.97
2024-03-02T15:37:56.500Z,58.25
2024-03-02T15:45:13.864Z,53.15
2024-03-02T15:52:23.932Z,49.97
2024-03-02T15:54:54.683Z,61.95
2024-03-02T15:57:24.445Z,56.25
2024-03-02T15:59:52.967Z,51.25
2024-03-02T16:02:21.890Z,49.50
2024-03-02T16:04:52.835Z,48.50
2024-03-02T16:07:52.480Z,55.08
2024-03-02T16:10:20.746Z,48.70
2024-03-02T16:12:49.717Z,51.03
2024-03-02T16:15:18.005Z,53.83
2024-03-02T16:17:46.683Z,61.95
2024-03-02T16:20:15.062Z,60.75
2024-03-02T16:22:43.625Z,57.90
2024-03-02T16:25:12.216Z,68.35
2024-03-02T16:27:43.110Z,64.13
2024-03-02T16:30:13.172Z,58.13
2024-03-02T16:32:41.753Z,56.65
2024-03-02T16:35:10.138Z,58.15
2024-03-02T16:37:38.912Z,62.63
2024-03-02T16:40:08.049Z,53.58
2024-03-02T16:42:36.933Z,53.78
2024-03-02T16:45:06.858Z,49.38
2024-03-02T16:47:35.505Z,56.25
2024-03-02T16:50:05.121Z,56.78
2024-03-02T16:52:33.754Z,51.95
2024-03-02T16:57:58.223Z,55.05
2024-03-02T17:00:26.708Z,54.50
2024-03-02T17:02:55.714Z,50.83
2024-03-02T17:05:24.260Z,51.63
2024-03-02T17:07:53.960Z,57.67
2024-03-02T17:10:22.331Z,52.85
2024-03-02T17:12:51.118Z,57.38
2024-03-02T17:15:27.753Z,57.63
2024-03-02T17:17:56.804Z,53.00
2024-03-02T17:20:25.284Z,52.97
2024-03-02T17:22:53.929Z,55.20
2024-03-02T17:25:22.534Z,56.03
2024-03-02T17:27:51.114Z,56.13
2024-03-02T17:30:21.579Z,59.78
2024-03-02T17:32:50.454Z,57.47
2024-03-02T17:35:18.781Z,61.03
2024-03-02T17:38:55.056Z,52.78
2024-03-02T17:42:09.262Z,58.33
2024-03-02T17:45:02.240Z,67.00
2024-03-02T17:47:54.717Z,64.60
2024-03-02T17:50:30.294Z,67.53
2024-03-02T17:53:59.357Z,57.60
2024-03-02T17:56:58.302Z,66.88
2024-03-02T17:59:26.736Z,79.75
2024-03-02T18:01:57.622Z,110.28
2024-03-02T18:05:00.146Z,119.72
2024-03-02T18:07:49.817Z,82.70
2024-03-02T18:10:30.297Z,64.20
2024-03-02T18:13:04.685Z,72.80
2024-03-02T18:15:37.738Z,66.95
2024-03-02T18:22:37.429Z,77.93
2024-03-02T18:25:42.397Z,68.70
2024-03-02T18:28:37.714Z,64.70
2024-03-02T18:31:07.819Z,64.65
2024-03-02T18:33:53.099Z,66.85
2024-03-02T18:36:23.603Z,62.80
2024-03-02T18:38:56.838Z,57.17
2024-03-02T18:41:29.902Z,49.95
2024-03-02T18:44:14.586Z,64.65
2024-03-02T18:47:13.660Z,60.25
2024-03-02T18:49:48.771Z,62.60
2024-03-02T18:52:19.716Z,57.67
2024-03-02T18:54:52.282Z,61.60
2024-03-02T18:57:21.967Z,57.65
2024-03-02T19:04:52.698Z,59.15
2024-03-02T19:07:53.228Z,55.85
2024-03-02T19:10:33.142Z,58.10
2024-03-02T19:13:22.547Z,54.42
2024-03-02T19:16:16.710Z,65.45
2024-03-02T19:18:46.718Z,57.42
2024-03-02T19:21:33.612Z,58.85
2024-03-02T19:24:05.005Z,66.80
2024-03-02T19:26:58.135Z,72.05
2024-03-02T19:30:46.674Z,70.65
2024-03-02T19:33:01.375Z,63.15
2024-03-02T19:35:48.318Z,67.70
2024-03-02T19:42:54.934Z,61.30
2024-03-02T19:54:54.136Z,63.70
2024-03-02T20:40:02.593Z,71.28
2024-03-02T22:43:27.198Z,115.20
2024-03-02T22:45:58.191Z,110.05
2024-03-02T22:48:26.679Z,96.32
2024-03-02T22:50:55.340Z,104.15
2024-03-02T22:53:31.681Z,110.95
2024-03-02T22:56:06.909Z,101.10
2024-03-02T23:01:10.063Z,101.47
2024-03-02T23:06:08.579Z,96.57
2024-03-02T23:08:37.782Z,98.03
2024-03-02T23:11:07.711Z,108.45
2024-03-02T23:13:37.148Z,105.45
2024-03-02T23:16:05.972Z,97.15
2024-03-02T23:18:34.393Z,95.68
2024-03-02T23:21:03.131Z,89.82
2024-03-02T23:23:31.395Z,89.90
2024-03-02T23:25:59.955Z,95.03
2024-03-02T23:28:28.223Z,90.63
2024-03-02T23:30:57.256Z,88.60
2024-03-02T23:33:25.658Z,96.65
2024-03-02T23:35:54.583Z,98.20
2024-03-02T23:38:22.858Z,99.80
2024-03-02T23:41:10.914Z,109.88
2024-03-02T23:43:39.893Z,114.50
2024-03-02T23:46:09.599Z,119.65
2024-03-02T23:48:38.245Z,125.25
2024-03-02T23:51:06.931Z,106.65
2024-03-02T23:53:35.333Z,117.68
2024-03-02T23:56:12.865Z,115.25
2024-03-02T23:58:41.600Z,107.93
